Terminal Aerodrome Forecast
Issued by NWS Charleston, WV

Current Version | Previous Version | Graphics & Text | Print | Product List | Glossary On
Versions: 1 2 3 4 5 6 7 8 9 10 11 12 13 14 15 16 17 18 19 20 21 22 23 24 25 26 27 28
000
FTUS41 KRLX 162347
TAFCRW
TAF
KCRW 162347Z 1700/1724 33008G15KT 6SM BR SCT008 BKN025
     FM170200 35006KT 6SM BR SCT025
     FM170600 00000KT 5SM BR FEW001 SCT025
     FM171300 00000KT P6SM SCT030 BKN200
     FM171700 00000KT P6SM -RA OVC025
     FM172000 15003KT 2SM -RA BR OVC015
     FM172300 18003KT 3SM -RA BR OVC008=

USA.gov is the U.S. government's official web portal to all federal, state and local government web resources and services.